createdAt,value
2022-12-22T00:02:20.092Z,10.08
2022-12-22T00:05:06.699Z,10.23
2022-12-22T00:07:52.455Z,10.12
2022-12-22T00:10:38.016Z,10.12
2022-12-22T00:13:23.176Z,10.08
2022-12-22T00:16:08.788Z,10.10
2022-12-22T00:18:53.762Z,10.07
2022-12-22T00:21:38.946Z,10.07
2022-12-22T00:24:24.244Z,10.07
2022-12-22T00:27:09.423Z,10.07
2022-12-22T00:29:57.682Z,10.08
2022-12-22T00:32:45.969Z,10.08
2022-12-22T00:35:33.131Z,10.18
2022-12-22T00:38:18.030Z,10.17
2022-12-22T00:41:03.405Z,10.13
2022-12-22T00:43:48.308Z,10.21
2022-12-22T00:46:36.115Z,10.19
2022-12-22T00:49:21.390Z,10.19
2022-12-22T00:52:06.323Z,10.15
2022-12-22T00:54:51.551Z,10.21
2022-12-22T00:57:38.253Z,10.15
2022-12-22T01:00:25.155Z,10.27
2022-12-22T01:03:10.429Z,10.21
2022-12-22T01:05:55.638Z,10.17
2022-12-22T01:08:40.433Z,10.15
2022-12-22T01:11:26.170Z,10.24
2022-12-22T01:14:11.092Z,10.25
2022-12-22T01:16:55.847Z,10.21
2022-12-22T01:19:40.691Z,10.18
2022-12-22T01:22:37.162Z,10.33
2022-12-22T01:25:29.974Z,10.39
2022-12-22T01:28:14.884Z,10.32
2022-12-22T01:31:00.658Z,10.32
2022-12-22T01:33:46.038Z,10.37
2022-12-22T01:36:30.756Z,10.30
2022-12-22T01:39:15.585Z,10.19
2022-12-22T01:42:00.972Z,10.31
2022-12-22T01:44:46.218Z,10.43
2022-12-22T01:47:46.388Z,10.49
2022-12-22T01:50:48.996Z,10.43
2022-12-22T01:53:39.964Z,10.30
2022-12-22T01:56:25.282Z,10.37
2022-12-22T01:59:14.340Z,10.43
2022-12-22T02:02:00.479Z,10.47
2022-12-22T02:04:55.143Z,10.47
2022-12-22T02:07:53.567Z,10.41
2022-12-22T02:10:44.477Z,10.54
2022-12-22T02:13:43.125Z,10.43
2022-12-22T02:16:35.842Z,10.46
2022-12-22T02:20:16.751Z,10.42
2022-12-22T02:23:10.598Z,10.43
2022-12-22T02:26:06.574Z,10.52
2022-12-22T02:28:51.823Z,10.53
2022-12-22T02:31:37.634Z,10.58
2022-12-22T02:34:22.765Z,10.56
2022-12-22T02:37:17.668Z,10.56
2022-12-22T02:40:15.010Z,10.61
2022-12-22T02:43:06.735Z,10.65
2022-12-22T02:45:56.062Z,10.74
2022-12-22T02:48:50.793Z,10.91
2022-12-22T02:51:44.134Z,10.84
2022-12-22T02:54:30.902Z,10.84
2022-12-22T02:57:15.943Z,10.84
2022-12-22T03:00:00.732Z,10.86
2022-12-22T03:02:45.673Z,10.83
2022-12-22T03:05:30.691Z,10.84
2022-12-22T03:08:15.994Z,10.98
2022-12-22T03:11:00.700Z,10.86
2022-12-22T03:13:45.427Z,11.04
2022-12-22T03:16:30.178Z,11.08
2022-12-22T03:19:15.059Z,10.94
2022-12-22T03:21:59.912Z,10.98
2022-12-22T03:24:44.760Z,10.91
2022-12-22T03:27:11.347Z,11.05
2022-12-22T03:29:37.705Z,11.08
2022-12-22T03:32:04.272Z,11.00
2022-12-22T03:34:30.630Z,11.02
2022-12-22T03:36:56.963Z,11.12
2022-12-22T03:39:23.392Z,11.00
2022-12-22T03:42:08.246Z,10.96
2022-12-22T03:44:52.957Z,11.01
2022-12-22T03:47:19.307Z,10.89
2022-12-22T03:49:47.020Z,10.92
2022-12-22T03:52:13.382Z,10.92
2022-12-22T03:54:39.758Z,10.98
2022-12-22T03:57:06.124Z,11.06
2022-12-22T03:59:32.574Z,11.04
2022-12-22T04:01:59.090Z,10.95
2022-12-22T04:04:27.031Z,11.04
2022-12-22T04:06:53.643Z,10.96
2022-12-22T04:09:20.127Z,11.11
2022-12-22T04:12:04.955Z,10.94
2022-12-22T04:14:34.270Z,11.06
2022-12-22T04:17:03.100Z,11.05
2022-12-22T04:19:29.891Z,11.21
2022-12-22T04:21:56.307Z,11.26
2022-12-22T04:24:22.795Z,11.14
2022-12-22T04:26:50.008Z,11.22
2022-12-22T04:29:16.606Z,11.17
2022-12-22T04:31:43.566Z,11.07
2022-12-22T04:34:10.119Z,11.19
2022-12-22T04:36:36.482Z,11.20
2022-12-22T04:39:02.888Z,11.13
2022-12-22T04:41:29.319Z,11.15
2022-12-22T04:43:55.727Z,11.19
2022-12-22T04:46:22.123Z,11.27
2022-12-22T04:48:59.375Z,11.20
2022-12-22T04:51:26.170Z,11.20
2022-12-22T04:53:52.684Z,11.15
2022-12-22T04:56:19.150Z,11.27
2022-12-22T04:58:45.556Z,11.22
2022-12-22T05:01:15.289Z,11.14
2022-12-22T05:03:41.893Z,11.20
2022-12-22T05:06:08.685Z,11.22
2022-12-22T05:08:35.365Z,11.23
2022-12-22T05:11:02.889Z,11.17
2022-12-22T05:13:30.732Z,11.22
2022-12-22T05:16:04.214Z,11.35
2022-12-22T05:18:30.681Z,11.37
2022-12-22T05:20:57.115Z,11.31
2022-12-22T05:23:23.508Z,11.29
2022-12-22T05:25:49.924Z,11.29
2022-12-22T05:28:16.323Z,11.31
2022-12-22T05:30:42.762Z,11.20
2022-12-22T05:33:09.209Z,11.22
2022-12-22T05:35:35.611Z,11.35
2022-12-22T05:38:02.014Z,11.43
2022-12-22T05:40:28.355Z,11.34
2022-12-22T05:42:54.721Z,11.40
2022-12-22T05:45:21.598Z,11.44
2022-12-22T05:47:51.020Z,11.42
2022-12-22T05:50:23.478Z,11.39
2022-12-22T05:52:50.230Z,11.37
2022-12-22T05:55:16.646Z,11.40
2022-12-22T05:57:43.559Z,11.45
2022-12-22T06:00:14.106Z,11.42
2022-12-22T06:02:41.504Z,11.41
2022-12-22T06:05:09.932Z,11.51
2022-12-22T06:07:36.693Z,11.55
2022-12-22T06:10:11.288Z,11.61
2022-12-22T06:12:38.278Z,11.54
2022-12-22T06:15:05.495Z,11.65
2022-12-22T06:17:31.958Z,11.60
2022-12-22T06:19:58.352Z,11.66
2022-12-22T06:22:24.761Z,11.62
2022-12-22T06:24:51.222Z,11.54
2022-12-22T06:27:17.649Z,11.65
2022-12-22T06:29:44.063Z,11.72
2022-12-22T06:32:10.486Z,11.67
2022-12-22T06:34:37.029Z,11.76
2022-12-22T06:37:03.458Z,11.68
2022-12-22T06:39:29.858Z,11.71
2022-12-22T06:42:14.898Z,11.67
2022-12-22T06:44:41.304Z,11.66
2022-12-22T06:47:08.121Z,11.76
2022-12-22T06:49:34.573Z,11.74
2022-12-22T06:52:01.005Z,11.85
2022-12-22T06:54:27.408Z,11.71
2022-12-22T06:56:54.711Z,11.74
2022-12-22T06:59:21.131Z,11.82
2022-12-22T07:01:47.564Z,11.82
2022-12-22T07:04:19.674Z,11.72
2022-12-22T07:06:50.109Z,11.68
2022-12-22T07:09:16.496Z,11.65
2022-12-22T07:11:42.910Z,11.78
2022-12-22T07:14:09.439Z,11.73
2022-12-22T07:16:35.966Z,11.64
2022-12-22T07:19:02.619Z,11.77
2022-12-22T07:21:29.134Z,11.72
2022-12-22T07:23:55.480Z,11.75
2022-12-22T07:26:21.903Z,11.74
2022-12-22T07:28:48.296Z,11.56
2022-12-22T07:31:17.242Z,11.72
2022-12-22T07:33:43.820Z,11.65
2022-12-22T07:36:12.977Z,11.67
2022-12-22T07:38:42.156Z,11.73
2022-12-22T07:41:29.300Z,11.82
2022-12-22T07:43:57.923Z,11.78
2022-12-22T07:46:26.327Z,11.80
2022-12-22T07:49:11.680Z,11.93
2022-12-22T07:51:40.811Z,11.92
2022-12-22T07:54:13.494Z,11.80
2022-12-22T07:56:40.257Z,11.77
2022-12-22T07:59:07.714Z,11.89
2022-12-22T08:01:34.579Z,12.10
2022-12-22T08:04:01.119Z,12.05
2022-12-22T08:06:27.952Z,11.99
2022-12-22T08:08:54.349Z,12.10
2022-12-22T08:11:20.741Z,12.02
2022-12-22T08:13:47.167Z,11.96
2022-12-22T08:16:14.340Z,11.84
2022-12-22T08:18:41.654Z,11.90
2022-12-22T08:21:08.912Z,12.01
2022-12-22T08:23:35.938Z,11.89
2022-12-22T08:26:10.565Z,11.94
2022-12-22T08:28:51.996Z,11.99
2022-12-22T08:31:19.068Z,11.83
2022-12-22T08:33:45.746Z,12.02
2022-12-22T08:36:13.492Z,12.06
2022-12-22T08:38:41.839Z,11.89
2022-12-22T08:41:13.974Z,12.10
2022-12-22T08:43:40.801Z,12.00
2022-12-22T08:46:07.220Z,12.05
2022-12-22T08:48:33.892Z,11.86
2022-12-22T08:51:00.347Z,11.90
2022-12-22T08:54:03.281Z,11.95
2022-12-22T08:56:13.156Z,11.82
2022-12-22T08:58:40.181Z,11.84
2022-12-22T09:01:06.744Z,11.92
2022-12-22T09:03:33.429Z,11.96
2022-12-22T09:06:03.427Z,11.88
2022-12-22T09:08:29.853Z,11.83
2022-12-22T09:10:56.275Z,11.91
2022-12-22T09:13:22.621Z,11.99
2022-12-22T09:15:48.968Z,11.92
2022-12-22T09:18:15.372Z,12.01
2022-12-22T09:20:41.716Z,12.05
2022-12-22T09:23:08.059Z,11.88
2022-12-22T09:25:35.066Z,11.97
2022-12-22T09:28:01.472Z,11.98
2022-12-22T09:30:27.864Z,11.90
2022-12-22T09:32:54.883Z,12.13
2022-12-22T09:35:21.224Z,12.11
2022-12-22T09:37:48.814Z,12.08
2022-12-22T09:40:15.305Z,11.92
2022-12-22T09:42:41.787Z,11.94
2022-12-22T09:45:19.975Z,12.02
2022-12-22T09:47:53.764Z,12.10
2022-12-22T09:50:25.365Z,12.14
2022-12-22T09:52:58.946Z,11.91
2022-12-22T09:55:25.368Z,12.08
2022-12-22T09:57:53.999Z,12.12
2022-12-22T10:00:24.805Z,11.99
2022-12-22T10:03:30.005Z,12.16
2022-12-22T10:06:24.560Z,12.07
2022-12-22T10:08:53.750Z,12.18
2022-12-22T10:11:20.211Z,12.24
2022-12-22T10:13:46.999Z,12.33
2022-12-22T10:16:21.643Z,12.29
2022-12-22T10:19:11.905Z,12.41
2022-12-22T10:21:46.157Z,12.34
2022-12-22T10:24:26.046Z,12.38
2022-12-22T10:26:58.211Z,12.39
2022-12-22T10:29:26.265Z,12.44
2022-12-22T10:32:12.904Z,12.43
2022-12-22T10:34:59.293Z,12.53
2022-12-22T10:37:38.225Z,12.64
2022-12-22T10:40:19.734Z,12.70
2022-12-22T10:42:50.790Z,12.69
2022-12-22T10:45:23.452Z,12.61
2022-12-22T10:47:53.363Z,12.63
2022-12-22T10:50:21.147Z,12.78
2022-12-22T10:52:56.632Z,12.85
2022-12-22T10:55:29.318Z,12.73
2022-12-22T10:58:15.436Z,12.75
2022-12-22T11:00:42.215Z,12.68
2022-12-22T11:03:19.053Z,12.65
2022-12-22T11:05:50.610Z,12.61
2022-12-22T11:08:19.997Z,12.61
2022-12-22T11:11:26.819Z,12.42
2022-12-22T11:14:08.468Z,12.35
2022-12-22T11:16:44.392Z,12.15
2022-12-22T11:19:23.047Z,12.02
2022-12-22T11:22:18.868Z,12.10
2022-12-22T11:24:53.913Z,11.82
2022-12-22T11:27:46.592Z,11.86
2022-12-22T11:30:24.051Z,11.94
2022-12-22T11:33:05.622Z,11.97
2022-12-22T11:35:45.799Z,11.82
2022-12-22T11:38:39.429Z,11.76
2022-12-22T11:41:12.008Z,11.82
2022-12-22T11:44:00.916Z,11.76
2022-12-22T11:46:52.617Z,11.91
2022-12-22T11:49:45.593Z,11.82
2022-12-22T11:52:40.113Z,11.82
2022-12-22T11:55:20.841Z,11.76
2022-12-22T11:58:00.925Z,11.85
2022-12-22T12:00:56.213Z,11.94
2022-12-22T12:03:55.535Z,12.00
2022-12-22T12:06:24.738Z,11.96
2022-12-22T12:09:02.114Z,11.97
2022-12-22T12:11:56.108Z,12.23
2022-12-22T12:14:43.163Z,12.18
2022-12-22T12:17:36.879Z,12.34
2022-12-22T12:20:21.871Z,12.29
2022-12-22T12:23:15.631Z,12.36
2022-12-22T12:25:49.346Z,12.34
2022-12-22T12:28:41.028Z,12.39
2022-12-22T12:31:12.628Z,12.59
2022-12-22T12:33:47.223Z,12.44
2022-12-22T12:36:24.522Z,12.64
2022-12-22T12:39:26.424Z,12.67
2022-12-22T12:42:20.393Z,12.55
2022-12-22T12:44:47.578Z,12.56
2022-12-22T12:47:34.319Z,12.37
2022-12-22T12:50:27.897Z,12.23
2022-12-22T12:53:10.547Z,12.22
2022-12-22T12:55:39.797Z,12.04
2022-12-22T12:58:10.993Z,11.98
2022-12-22T13:00:43.230Z,11.89
2022-12-22T13:04:00.971Z,11.91
2022-12-22T13:06:51.515Z,12.07
2022-12-22T13:09:49.835Z,11.90
2022-12-22T13:12:54.004Z,12.00
2022-12-22T13:15:31.858Z,12.06
2022-12-22T13:17:58.943Z,12.20
2022-12-22T13:20:32.562Z,12.03
2022-12-22T13:23:03.215Z,11.98
2022-12-22T13:25:53.053Z,11.93
2022-12-22T13:28:21.430Z,12.16
2022-12-22T13:30:57.767Z,12.29
2022-12-22T13:33:28.025Z,12.18
2022-12-22T13:35:59.056Z,12.06
2022-12-22T13:38:32.043Z,12.14
2022-12-22T13:41:16.444Z,12.29
2022-12-22T13:43:53.220Z,12.24
2022-12-22T13:46:20.101Z,12.32
2022-12-22T13:48:49.837Z,12.24
2022-12-22T13:51:28.222Z,12.13
2022-12-22T13:54:10.532Z,12.10
2022-12-22T13:56:41.178Z,12.05
2022-12-22T13:59:25.499Z,12.11
2022-12-22T14:01:56.669Z,12.06
2022-12-22T14:04:23.273Z,12.14
2022-12-22T14:06:49.711Z,12.15
2022-12-22T14:09:19.291Z,12.37
2022-12-22T14:12:16.401Z,12.15
2022-12-22T14:14:45.496Z,12.42
2022-12-22T14:17:36.694Z,12.22
2022-12-22T14:20:17.537Z,12.28
2022-12-22T14:22:53.074Z,12.38
2022-12-22T14:25:23.830Z,12.41
2022-12-22T14:27:53.249Z,12.40
2022-12-22T14:30:26.712Z,12.25
2022-12-22T14:32:56.082Z,12.26
2022-12-22T14:35:22.703Z,12.40
2022-12-22T14:38:16.520Z,12.23
2022-12-22T14:40:44.084Z,12.33
2022-12-22T14:43:16.345Z,11.96
2022-12-22T14:45:43.622Z,12.14
2022-12-22T14:48:16.776Z,12.09
2022-12-22T14:50:50.082Z,12.05
2022-12-22T14:53:24.273Z,11.98
2022-12-22T14:55:52.080Z,11.85
2022-12-22T14:58:22.639Z,11.90
2022-12-22T15:01:09.792Z,11.83
2022-12-22T15:03:38.520Z,11.75
2022-12-22T15:06:34.272Z,11.73
2022-12-22T15:09:06.706Z,11.98
2022-12-22T15:11:34.208Z,11.65
2022-12-22T15:14:01.740Z,11.93
2022-12-22T15:16:28.230Z,11.80
2022-12-22T15:18:55.255Z,11.58
2022-12-22T15:21:22.843Z,11.39
2022-12-22T15:23:49.331Z,11.50
2022-12-22T15:26:15.751Z,11.50
2022-12-22T15:28:42.181Z,11.42
2022-12-22T15:31:15.694Z,11.39
2022-12-22T15:33:43.605Z,11.26
2022-12-22T15:36:12.315Z,11.41
2022-12-22T15:38:39.507Z,11.39
2022-12-22T15:41:07.032Z,11.38
2022-12-22T15:46:22.118Z,11.28
2022-12-22T15:48:48.745Z,11.15
2022-12-22T15:51:24.134Z,11.17
2022-12-22T15:53:51.295Z,11.15
2022-12-22T15:56:21.649Z,11.16
2022-12-22T15:58:48.996Z,11.19
2022-12-22T16:01:15.630Z,11.08
2022-12-22T16:03:42.259Z,11.14
2022-12-22T16:06:16.476Z,11.14
2022-12-22T16:08:52.714Z,11.11
2022-12-22T16:11:19.749Z,10.95
2022-12-22T16:13:47.217Z,11.04
2022-12-22T16:16:13.688Z,10.98
2022-12-22T16:18:40.170Z,10.99
2022-12-22T16:21:13.539Z,10.94
2022-12-22T16:23:42.251Z,10.97
2022-12-22T16:26:15.232Z,11.00
2022-12-22T16:28:41.669Z,10.98
2022-12-22T16:31:17.229Z,11.01
2022-12-22T16:33:43.682Z,10.93
2022-12-22T16:36:10.042Z,10.95
2022-12-22T16:38:36.435Z,10.97
2022-12-22T16:41:03.582Z,10.83
2022-12-22T16:46:24.025Z,10.93
2022-12-22T16:48:53.053Z,10.89
2022-12-22T16:51:34.004Z,10.91
2022-12-22T16:54:01.348Z,10.88
2022-12-22T16:56:30.283Z,10.84
2022-12-22T16:58:56.888Z,10.80
2022-12-22T17:01:55.177Z,10.80
2022-12-22T17:04:25.901Z,10.78
2022-12-22T17:06:54.256Z,10.75
2022-12-22T17:09:49.730Z,10.70
2022-12-22T17:12:22.487Z,10.72
2022-12-22T17:14:50.555Z,10.65
2022-12-22T17:17:19.122Z,10.66
2022-12-22T17:19:45.568Z,10.72
2022-12-22T17:22:32.419Z,10.69
2022-12-22T17:25:05.529Z,10.79
2022-12-22T17:27:34.195Z,10.68
2022-12-22T17:30:03.481Z,10.62
2022-12-22T17:32:29.890Z,10.57
2022-12-22T17:34:56.280Z,10.48
2022-12-22T17:37:23.498Z,10.50
2022-12-22T17:39:56.169Z,10.48
2022-12-22T17:42:23.946Z,10.36
2022-12-22T17:44:51.354Z,10.38
2022-12-22T17:47:25.163Z,10.25
2022-12-22T17:49:58.581Z,10.16
2022-12-22T17:52:26.961Z,10.27
2022-12-22T17:54:53.853Z,10.31
2022-12-22T17:57:24.778Z,10.11
2022-12-22T17:59:51.140Z,10.21
2022-12-22T18:02:20.187Z,10.08
2022-12-22T18:04:47.487Z,10.15
2022-12-22T18:07:16.985Z,10.18
2022-12-22T18:09:44.812Z,10.24
2022-12-22T18:12:17.178Z,10.33
2022-12-22T18:14:44.701Z,10.28
2022-12-22T18:17:35.545Z,10.43
2022-12-22T18:20:02.580Z,10.44
2022-12-22T18:22:29.532Z,10.49
2022-12-22T18:24:56.590Z,10.64
2022-12-22T18:27:23.277Z,10.62
2022-12-22T18:29:49.710Z,10.79
2022-12-22T18:32:20.798Z,10.79
2022-12-22T18:34:52.939Z,10.84
2022-12-22T18:37:19.359Z,10.86
2022-12-22T18:39:46.003Z,10.76
2022-12-22T18:42:23.561Z,10.77
2022-12-22T18:44:50.830Z,10.79
2022-12-22T18:47:17.815Z,10.78
2022-12-22T18:49:45.414Z,10.79
2022-12-22T18:52:18.016Z,10.76
2022-12-22T18:54:45.167Z,10.76
2022-12-22T18:57:19.709Z,10.85
2022-12-22T18:59:47.492Z,10.80
2022-12-22T19:02:26.767Z,10.96
2022-12-22T19:04:54.377Z,10.96
2022-12-22T19:07:23.569Z,10.91
2022-12-22T19:09:50.541Z,10.89
2022-12-22T19:12:19.388Z,10.83
2022-12-22T19:14:49.266Z,11.00
2022-12-22T19:17:22.273Z,11.00
2022-12-22T19:19:48.723Z,10.98
2022-12-22T19:22:15.540Z,10.99
2022-12-22T19:24:44.863Z,11.06
2022-12-22T19:27:25.104Z,11.20
2022-12-22T19:30:02.727Z,11.13
2022-12-22T19:32:33.684Z,11.15
2022-12-22T19:35:00.159Z,11.17
2022-12-22T19:37:26.652Z,11.19
2022-12-22T19:39:53.001Z,11.30
2022-12-22T19:42:23.965Z,11.19
2022-12-22T19:44:50.375Z,11.12
2022-12-22T19:47:22.234Z,11.12
2022-12-22T19:49:48.626Z,11.07
2022-12-22T19:52:15.015Z,11.10
2022-12-22T19:54:41.392Z,11.09
2022-12-22T19:57:13.780Z,11.12
2022-12-22T19:59:42.768Z,11.09
2022-12-22T20:02:24.304Z,11.11
2022-12-22T20:04:51.265Z,11.13
2022-12-22T20:07:19.867Z,11.09
2022-12-22T20:09:46.961Z,11.07
2022-12-22T20:12:22.412Z,11.05
2022-12-22T20:14:49.141Z,11.06
2022-12-22T20:17:15.556Z,11.04
2022-12-22T20:19:42.048Z,11.11
2022-12-22T20:22:13.908Z,11.07
2022-12-22T20:24:40.311Z,11.01
2022-12-22T20:27:18.602Z,10.98
2022-12-22T20:29:45.027Z,10.97
2022-12-22T20:32:14.712Z,10.92
2022-12-22T20:34:41.281Z,10.91
2022-12-22T20:37:14.501Z,10.81
2022-12-22T20:39:41.464Z,10.81
2022-12-22T20:42:18.023Z,10.88
2022-12-22T20:45:02.968Z,10.86
2022-12-22T20:47:31.992Z,10.79
2022-12-22T20:49:58.901Z,10.85
2022-12-22T20:52:26.164Z,10.82
2022-12-22T20:54:52.521Z,10.71
2022-12-22T20:57:20.708Z,10.71
2022-12-22T20:59:53.855Z,10.76
2022-12-22T21:02:25.278Z,10.77
2022-12-22T21:04:51.825Z,10.82
2022-12-22T21:07:18.257Z,10.84
2022-12-22T21:09:44.626Z,10.84
2022-12-22T21:12:11.000Z,10.72
2022-12-22T21:14:37.418Z,10.77
2022-12-22T21:17:04.393Z,10.80
2022-12-22T21:19:30.831Z,10.74
2022-12-22T21:21:57.208Z,10.78
2022-12-22T21:24:23.614Z,10.73
2022-12-22T21:26:53.739Z,10.83
2022-12-22T21:29:25.203Z,10.89
2022-12-22T21:31:51.917Z,10.87
2022-12-22T21:34:19.111Z,10.81
2022-12-22T21:36:48.526Z,10.79
2022-12-22T21:39:39.386Z,10.82
2022-12-22T21:42:06.464Z,10.70
2022-12-22T21:44:35.135Z,10.70
2022-12-22T21:47:01.979Z,10.69
2022-12-22T21:49:31.072Z,10.62
2022-12-22T21:51:57.592Z,10.59
2022-12-22T21:54:25.361Z,10.61
2022-12-22T21:56:53.265Z,10.59
2022-12-22T21:59:20.123Z,10.60
2022-12-22T22:01:46.651Z,10.56
2022-12-22T22:04:13.205Z,10.46
2022-12-22T22:06:39.565Z,10.42
2022-12-22T22:09:07.024Z,10.28
2022-12-22T22:11:33.625Z,10.13
2022-12-22T22:14:00.376Z,10.23
2022-12-22T22:16:26.783Z,10.26
2022-12-22T22:18:53.162Z,10.21
2022-12-22T22:21:19.508Z,10.28
2022-12-22T22:23:45.893Z,10.18
2022-12-22T22:26:12.282Z,10.15
2022-12-22T22:28:38.671Z,10.09
2022-12-22T22:31:10.397Z,10.04
2022-12-22T22:33:37.125Z,10.04
2022-12-22T22:36:07.528Z,9.89
2022-12-22T22:38:34.269Z,9.86
2022-12-22T22:41:00.820Z,9.80
2022-12-22T22:43:27.167Z,9.86
2022-12-22T22:45:53.575Z,9.77
2022-12-22T22:48:22.265Z,9.87
2022-12-22T22:50:49.349Z,9.85
2022-12-22T22:53:16.021Z,9.89
2022-12-22T22:55:42.733Z,9.95
2022-12-22T22:58:11.238Z,9.92
2022-12-22T23:00:38.689Z,10.05
2022-12-22T23:03:05.579Z,10.03
2022-12-22T23:05:32.043Z,9.92
2022-12-22T23:07:58.554Z,9.91
2022-12-22T23:10:25.231Z,9.90
2022-12-22T23:12:51.759Z,9.88
2022-12-22T23:15:18.500Z,9.92
2022-12-22T23:17:44.858Z,9.80
2022-12-22T23:20:11.453Z,9.86
2022-12-22T23:22:37.960Z,9.94
2022-12-22T23:25:04.693Z,9.90
2022-12-22T23:27:31.145Z,9.98
2022-12-22T23:29:57.602Z,9.91
2022-12-22T23:32:23.999Z,9.87
2022-12-22T23:34:50.601Z,9.93
2022-12-22T23:37:19.617Z,9.90
2022-12-22T23:39:46.739Z,9.97
2022-12-22T23:42:13.332Z,9.88
2022-12-22T23:44:39.704Z,10.01
2022-12-22T23:47:06.224Z,10.07
2022-12-22T23:49:32.620Z,10.01
2022-12-22T23:51:58.982Z,10.09
2022-12-22T23:54:25.404Z,10.08
2022-12-22T23:56:51.806Z,10.10
2022-12-22T23:59:18.206Z,10.11
